Time;durP1;ratioP1;P1;durP2;ratioP2;P2;SDS_P1;SDS_P2;PMS_P1;PMS_P2;Temp;Humidity;BMP_temperature;BMP_pressure;BME280_temperature;BME280_humidity;BME280_pressure;Samples;Min_cycle;Max_cycle;Signal;HPM_P1;HPM_P2
2023/07/19 00:00:57;;;;;;;5.43;1.75;;;;;;;19.65;98.52;101362.44;4930007;29;20110;-65
2023/07/19 00:03:25;;;;;;;6.05;1.60;;;;;;;19.62;99.55;101357.50;4924197;29;20055;-64
2023/07/19 00:05:51;;;;;;;6.40;1.80;;;;;;;19.58;100.00;101361.56;4923703;29;20130;-65
2023/07/19 00:08:18;;;;;;;4.63;1.95;;;;;;;19.55;100.00;101363.59;4917202;29;20858;-67
2023/07/19 00:10:44;;;;;;;6.63;1.60;;;;;;;19.53;100.00;101359.47;4923225;29;20489;-64
2023/07/19 00:13:11;;;;;;;3.88;1.52;;;;;;;19.55;99.26;101358.25;4924543;29;20126;-65
2023/07/19 00:15:37;;;;;;;7.18;1.42;;;;;;;19.52;100.00;101356.00;4926945;29;20630;-65
2023/07/19 00:18:03;;;;;;;5.68;1.70;;;;;;;19.53;100.00;101360.28;4929341;29;20056;-65
2023/07/19 00:20:30;;;;;;;1.92;1.42;;;;;;;19.53;100.00;101348.84;4925814;29;20132;-65
2023/07/19 00:22:57;;;;;;;3.90;1.33;;;;;;;19.56;98.76;101351.09;4920646;29;20074;-65
2023/07/19 00:25:23;;;;;;;3.97;1.70;;;;;;;19.60;98.33;101347.06;4907934;29;20055;-64
2023/07/19 00:27:50;;;;;;;3.90;1.50;;;;;;;19.64;96.57;101342.16;4922220;29;20047;-65
2023/07/19 00:30:17;;;;;;;3.47;1.40;;;;;;;19.61;100.00;101345.22;4927496;29;20162;-65
2023/07/19 00:32:44;;;;;;;2.72;1.40;;;;;;;19.60;100.00;101338.22;4928883;29;20090;-65
2023/07/19 00:35:10;;;;;;;3.22;1.25;;;;;;;19.51;100.00;101329.59;4926051;29;20051;-66
2023/07/19 00:37:37;;;;;;;3.90;1.60;;;;;;;19.45;100.00;101330.38;4917230;29;20055;-67
2023/07/19 00:40:04;;;;;;;3.42;1.48;;;;;;;19.40;100.00;101324.78;4922070;29;20138;-65
2023/07/19 00:42:31;;;;;;;5.95;1.58;;;;;;;19.40;100.00;101322.13;4918380;29;20047;-65
2023/07/19 00:44:58;;;;;;;2.35;1.27;;;;;;;19.39;100.00;101317.84;4910187;29;20055;-67
2023/07/19 00:47:24;;;;;;;4.22;1.70;;;;;;;19.34;100.00;101319.22;4906451;29;20542;-65
2023/07/19 00:49:54;;;;;;;4.18;1.20;;;;;;;19.32;100.00;101309.78;4925403;29;20048;-66
2023/07/19 00:52:21;;;;;;;5.30;1.73;;;;;;;19.23;100.00;101311.78;4922385;29;20354;-65
2023/07/19 00:54:47;;;;;;;3.78;1.50;;;;;;;19.21;100.00;101297.84;4921447;28;20051;-65
2023/07/19 00:57:14;;;;;;;4.93;1.83;;;;;;;19.21;100.00;101303.16;4915880;29;20094;-65
2023/07/19 00:59:41;;;;;;;4.10;1.60;;;;;;;19.23;100.00;101301.13;4911847;29;20051;-66
2023/07/19 01:02:07;;;;;;;5.07;1.60;;;;;;;19.24;100.00;101299.28;4926484;29;20052;-64
2023/07/19 01:04:34;;;;;;;2.92;1.48;;;;;;;19.15;100.00;101296.78;4918745;29;20054;-65
2023/07/19 01:07:04;;;;;;;2.03;1.38;;;;;;;19.11;100.00;101284.03;4924122;29;20421;-65
2023/07/19 01:09:32;;;;;;;1.75;1.33;;;;;;;19.02;100.00;101280.69;4926024;29;20102;-65
2023/07/19 01:11:58;;;;;;;3.43;1.53;;;;;;;18.95;100.00;101278.00;4923701;29;20048;-65
2023/07/19 01:14:25;;;;;;;2.72;1.40;;;;;;;18.95;100.00;101279.81;4930934;29;20047;-65
2023/07/19 01:16:51;;;;;;;4.38;1.55;;;;;;;18.87;100.00;101282.59;4905688;29;20056;-65
2023/07/19 01:19:18;;;;;;;3.88;1.52;;;;;;;18.82;100.00;101284.97;4925805;29;20066;-65
2023/07/19 01:21:44;;;;;;;3.55;1.73;;;;;;;18.74;100.00;101280.63;4920275;29;20057;-65
2023/07/19 01:24:10;;;;;;;7.05;1.65;;;;;;;18.70;100.00;101295.25;4926762;29;20137;-66
2023/07/19 01:26:37;;;;;;;3.95;1.40;;;;;;;18.66;100.00;101286.03;4930666;29;20047;-64
2023/07/19 01:29:03;;;;;;;4.20;1.70;;;;;;;18.62;100.00;101296.22;4921615;29;20075;-66
2023/07/19 01:31:30;;;;;;;3.17;1.50;;;;;;;18.56;100.00;101289.84;4929874;29;20505;-65
2023/07/19 01:33:56;;;;;;;5.22;1.85;;;;;;;18.53;100.00;101282.22;4893950;29;20051;-65
2023/07/19 01:36:23;;;;;;;2.92;1.67;;;;;;;18.51;100.00;101289.56;4925639;29;20139;-65
2023/07/19 01:38:49;;;;;;;3.13;1.80;;;;;;;18.46;100.00;101289.28;4923440;29;20108;-66
2023/07/19 01:41:16;;;;;;;3.97;1.45;;;;;;;18.43;100.00;101291.50;4911611;29;20547;-65
2023/07/19 01:43:42;;;;;;;4.28;1.90;;;;;;;18.39;100.00;101291.06;4930363;29;20044;-64
2023/07/19 01:46:09;;;;;;;5.50;1.50;;;;;;;18.37;100.00;101290.44;4905255;29;20154;-65
2023/07/19 01:48:36;;;;;;;2.97;1.85;;;;;;;18.32;100.00;101293.63;4925309;29;20077;-66
2023/07/19 01:51:02;;;;;;;5.68;1.98;;;;;;;18.29;100.00;101282.56;4924005;28;20401;-64
2023/07/19 01:53:29;;;;;;;3.60;1.60;;;;;;;18.28;100.00;101283.56;4923837;29;20060;-65
2023/07/19 01:55:55;;;;;;;3.42;1.50;;;;;;;18.25;100.00;101284.78;4921293;29;20469;-65
2023/07/19 01:58:22;;;;;;;6.72;1.80;;;;;;;18.20;100.00;101281.03;4919816;29;20493;-66
2023/07/19 02:00:48;;;;;;;4.75;1.77;;;;;;;18.20;100.00;101281.03;4925372;29;20066;-66
2023/07/19 02:03:15;;;;;;;4.88;1.75;;;;;;;18.16;100.00;101277.91;4923030;29;20501;-64
2023/07/19 02:05:41;;;;;;;4.85;1.83;;;;;;;18.16;100.00;101275.25;4928789;29;20667;-64
2023/07/19 02:08:08;;;;;;;3.65;1.70;;;;;;;18.15;100.00;101279.75;4904995;29;20047;-66
2023/07/19 02:10:34;;;;;;;3.95;2.05;;;;;;;18.12;100.00;101272.13;4925007;29;20282;-67
2023/07/19 02:13:01;;;;;;;3.53;1.73;;;;;;;18.14;100.00;101275.44;4916167;29;20051;-64
2023/07/19 02:15:27;;;;;;;4.72;2.05;;;;;;;18.07;100.00;101277.19;4926775;29;20083;-64
2023/07/19 02:17:54;;;;;;;6.60;2.30;;;;;;;18.04;100.00;101269.59;4929135;29;20091;-65
2023/07/19 02:20:20;;;;;;;4.18;1.92;;;;;;;18.02;100.00;101268.13;4921894;29;20048;-64
2023/07/19 02:22:47;;;;;;;4.60;1.60;;;;;;;18.07;100.00;101266.59;4930091;29;20048;-64
2023/07/19 02:25:13;;;;;;;3.47;1.77;;;;;;;18.09;100.00;101261.91;4915812;28;20485;-64
2023/07/19 02:27:40;;;;;;;5.95;2.08;;;;;;;18.12;100.00;101264.19;4925278;29;20134;-66
2023/07/19 02:30:07;;;;;;;2.42;1.65;;;;;;;18.14;100.00;101269.31;4920550;28;20138;-64
2023/07/19 02:32:33;;;;;;;3.65;1.90;;;;;;;18.08;100.00;101264.75;4929619;29;20056;-64
2023/07/19 02:35:01;;;;;;;6.93;2.03;;;;;;;18.02;100.00;101261.00;4928639;29;20055;-67
2023/07/19 02:37:27;;;;;;;5.15;2.35;;;;;;;18.04;100.00;101266.13;4922776;29;20075;-64
2023/07/19 02:39:54;;;;;;;6.07;2.00;;;;;;;17.96;100.00;101259.06;4922235;29;20083;-64
2023/07/19 02:42:20;;;;;;;5.05;1.80;;;;;;;17.89;100.00;101258.97;4919470;29;20052;-65
2023/07/19 02:44:46;;;;;;;2.97;1.90;;;;;;;17.88;100.00;101246.72;4929281;29;20564;-63
2023/07/19 02:47:13;;;;;;;7.10;2.08;;;;;;;17.86;100.00;101259.38;4912643;29;20075;-64
2023/07/19 02:49:41;;;;;;;5.28;2.22;;;;;;;17.84;100.00;101264.03;4929477;29;20777;-64
2023/07/19 02:52:08;;;;;;;4.07;1.95;;;;;;;17.78;100.00;101268.19;4926872;29;20056;-63
2023/07/19 02:54:35;;;;;;;6.05;1.98;;;;;;;17.75;100.00;101270.38;4896956;29;20062;-66
2023/07/19 02:57:02;;;;;;;2.42;1.77;;;;;;;17.74;100.00;101272.22;4926174;29;20791;-72
2023/07/19 02:59:28;;;;;;;3.47;2.00;;;;;;;17.66;100.00;101267.03;4917314;29;20112;-66
2023/07/19 03:01:55;;;;;;;4.97;2.15;;;;;;;17.64;100.00;101270.84;4932385;29;20083;-66
2023/07/19 03:04:21;;;;;;;3.25;1.88;;;;;;;17.62;100.00;101276.34;4924713;29;20059;-65
2023/07/19 03:06:48;;;;;;;3.67;1.90;;;;;;;17.63;100.00;101266.56;4918562;29;20158;-67
2023/07/19 03:09:15;;;;;;;5.50;2.00;;;;;;;17.66;100.00;101279.44;4924451;29;20639;-65
2023/07/19 03:11:41;;;;;;;10.35;2.33;;;;;;;17.63;100.00;101279.81;4928611;28;20050;-65
2023/07/19 03:14:08;;;;;;;5.18;2.30;;;;;;;17.65;100.00;101283.94;4931303;29;20381;-64
2023/07/19 03:16:34;;;;;;;4.68;2.45;;;;;;;17.63;100.00;101280.63;4924839;29;20426;-66
2023/07/19 03:19:01;;;;;;;4.65;2.53;;;;;;;17.62;100.00;101281.66;4929036;29;20485;-65
2023/07/19 03:21:27;;;;;;;6.50;2.40;;;;;;;17.62;100.00;101280.81;4921522;29;20047;-64
2023/07/19 03:23:54;;;;;;;4.15;2.30;;;;;;;17.62;100.00;101271.03;4929137;29;20482;-64
2023/07/19 03:26:20;;;;;;;5.75;2.58;;;;;;;17.61;100.00;101272.03;4931672;29;20465;-64
2023/07/19 03:28:47;;;;;;;3.05;2.25;;;;;;;17.57;100.00;101274.22;4925418;29;20054;-64
2023/07/19 03:31:13;;;;;;;6.10;2.55;;;;;;;17.55;100.00;101264.81;4931540;29;20040;-64
2023/07/19 03:33:40;;;;;;;7.53;2.45;;;;;;;17.50;100.00;101275.94;4922298;29;20052;-67
2023/07/19 03:36:06;;;;;;;8.77;2.58;;;;;;;17.48;100.00;101263.88;4923875;29;20052;-64
2023/07/19 03:38:33;;;;;;;4.57;2.95;;;;;;;17.54;100.00;101271.94;4925313;29;20218;-64
2023/07/19 03:41:09;;;;;;;7.63;3.13;;;;;;;17.56;100.00;101272.59;4915906;29;20500;-64
2023/07/19 03:43:36;;;;;;;5.55;3.20;;;;;;;17.56;100.00;101264.63;4928118;29;20102;-65
2023/07/19 03:46:07;;;;;;;5.90;2.80;;;;;;;17.51;100.00;101268.84;4910644;29;20488;-64
2023/07/19 03:48:35;;;;;;;4.68;3.10;;;;;;;17.49;100.00;101266.34;4927421;29;20086;-65
2023/07/19 03:51:02;;;;;;;7.00;2.95;;;;;;;17.48;100.00;101270.00;4915326;29;20079;-65
2023/07/19 03:53:29;;;;;;;4.85;3.20;;;;;;;17.49;100.00;101269.00;4928776;29;20130;-66
2023/07/19 03:55:57;;;;;;;5.63;2.90;;;;;;;17.50;100.00;101275.13;4924752;28;20079;-65
2023/07/19 03:58:24;;;;;;;5.30;3.13;;;;;;;17.45;100.00;101275.69;4931056;29;20071;-65
2023/07/19 04:00:55;;;;;;;4.30;2.50;;;;;;;17.47;100.00;101281.63;4930172;29;20139;-68
2023/07/19 04:03:22;;;;;;;5.30;3.05;;;;;;;17.44;100.00;101278.50;4921299;29;20115;-65
2023/07/19 04:05:49;;;;;;;6.88;3.60;;;;;;;17.48;100.00;101264.69;4927553;29;20103;-66
2023/07/19 04:08:16;;;;;;;6.45;2.97;;;;;;;17.54;100.00;101271.94;4925507;29;20063;-66
2023/07/19 04:10:43;;;;;;;6.93;3.65;;;;;;;17.57;100.00;101266.25;4924028;29;20043;-65
2023/07/19 04:13:10;;;;;;;7.30;3.17;;;;;;;17.57;100.00;101268.91;4921577;29;20119;-67
2023/07/19 04:15:37;;;;;;;6.93;3.70;;;;;;;17.58;100.00;101275.03;4929940;29;20130;-67
2023/07/19 04:18:04;;;;;;;9.35;4.03;;;;;;;17.63;100.00;101279.81;4918207;29;20047;-65
2023/07/19 04:20:31;;;;;;;6.47;4.20;;;;;;;17.68;100.00;101275.63;4930861;29;20063;-65
2023/07/19 04:22:57;;;;;;;8.85;4.30;;;;;;;17.73;100.00;101273.22;4929433;29;20057;-65
2023/07/19 04:25:27;;;;;;;7.68;4.72;;;;;;;17.78;100.00;101265.56;4923367;29;20047;-65
2023/07/19 04:27:53;;;;;;;9.35;3.80;;;;;;;17.89;100.00;101272.25;4930722;29;20106;-65
2023/07/19 04:30:20;;;;;;;9.27;4.68;;;;;;;17.91;100.00;101272.88;4918883;29;20245;-65
2023/07/19 04:32:48;;;;;;;11.13;5.15;;;;;;;17.95;100.00;101268.03;4909069;29;20600;-65
2023/07/19 04:35:15;;;;;;;9.60;4.72;;;;;;;17.95;100.00;101268.88;4920862;29;20063;-66
2023/07/19 04:37:41;;;;;;;9.57;5.30;;;;;;;18.01;100.00;101266.47;4929817;29;20047;-65
2023/07/19 04:40:09;;;;;;;8.32;5.05;;;;;;;18.07;100.00;101268.38;4929629;29;20044;-65
2023/07/19 04:42:36;;;;;;;8.98;4.93;;;;;;;18.12;100.00;101269.47;4924495;28;20059;-65
2023/07/19 04:45:03;;;;;;;10.35;5.43;;;;;;;18.11;100.00;101273.16;4925768;29;20051;-65
2023/07/19 04:47:29;;;;;;;8.23;5.10;;;;;;;18.15;100.00;101270.94;4916019;29;20091;-65
2023/07/19 04:49:56;;;;;;;11.85;5.13;;;;;;;18.21;100.00;101278.19;4929091;29;20076;-65
2023/07/19 04:52:22;;;;;;;10.85;5.07;;;;;;;18.25;100.00;101273.31;4921711;29;20647;-65
2023/07/19 04:54:49;;;;;;;8.23;5.43;;;;;;;18.25;100.00;101265.34;4929959;29;20087;-66
2023/07/19 04:57:16;;;;;;;10.60;5.15;;;;;;;18.30;100.00;101274.41;4914182;29;20066;-65
2023/07/19 04:59:43;;;;;;;7.05;4.90;;;;;;;18.33;100.00;101282.00;4916785;29;20047;-65
2023/07/19 05:02:09;;;;;;;10.60;4.90;;;;;;;18.38;100.00;101287.59;4926301;29;20052;-67
2023/07/19 05:04:36;;;;;;;7.20;5.00;;;;;;;18.42;100.00;101288.00;4903760;28;20056;-66
2023/07/19 05:07:02;;;;;;;8.32;5.38;;;;;;;18.45;100.00;101289.50;4928724;29;20536;-65
2023/07/19 05:09:29;;;;;;;9.82;5.38;;;;;;;18.49;100.00;101291.59;4924390;29;20135;-65
2023/07/19 05:11:55;;;;;;;10.32;5.30;;;;;;;18.52;100.00;101282.41;4925498;29;20052;-65
2023/07/19 05:14:23;;;;;;;10.43;5.60;;;;;;;18.52;100.00;101287.72;4920468;29;20056;-65
2023/07/19 05:16:50;;;;;;;8.32;5.15;;;;;;;18.47;100.00;101282.16;4922464;29;20054;-65
2023/07/19 05:19:16;;;;;;;8.15;5.25;;;;;;;18.45;100.00;101287.66;4912809;29;20051;-64
2023/07/19 05:21:43;;;;;;;8.13;5.00;;;;;;;18.43;100.00;101284.38;4921326;29;20044;-64
2023/07/19 05:24:09;;;;;;;8.00;5.50;;;;;;;18.45;100.00;101287.66;4926928;29;20130;-67
2023/07/19 05:26:36;;;;;;;8.98;5.30;;;;;;;18.45;100.00;101284.19;4920378;29;20132;-65
2023/07/19 05:29:06;;;;;;;14.40;5.90;;;;;;;18.50;100.00;101292.41;4928429;29;20059;-65
2023/07/19 05:31:35;;;;;;;10.02;5.22;;;;;;;18.58;100.00;101289.63;4929542;29;20043;-65
2023/07/19 05:34:02;;;;;;;11.32;5.85;;;;;;;18.65;100.00;101295.84;4920193;29;20143;-65
2023/07/19 05:36:29;;;;;;;12.23;5.87;;;;;;;18.60;100.00;101292.09;4926327;29;20055;-66
2023/07/19 05:38:55;;;;;;;9.60;5.95;;;;;;;18.60;100.00;101287.59;4917654;28;20726;-64
2023/07/19 05:41:21;;;;;;;10.23;5.65;;;;;;;18.63;100.00;101294.38;4928349;29;20139;-65
2023/07/19 05:43:49;;;;;;;8.02;6.03;;;;;;;18.69;100.00;101290.97;4924037;29;20059;-67
2023/07/19 05:46:36;;;;;;;9.50;5.15;;;;;;;18.67;100.00;101298.31;4926256;29;20588;-64
2023/07/19 05:49:03;;;;;;;9.70;5.40;;;;;;;18.77;100.00;101293.50;4928972;29;20082;-64
2023/07/19 05:51:29;;;;;;;11.53;5.77;;;;;;;18.73;100.00;101292.25;4918425;29;20134;-65
2023/07/19 05:53:56;;;;;;;10.63;4.78;;;;;;;18.75;100.00;101295.53;4922774;29;20055;-65
2023/07/19 05:56:23;;;;;;;9.52;4.82;;;;;;;18.78;100.00;101288.00;4923625;29;20488;-64
2023/07/19 05:58:51;;;;;;;8.43;5.15;;;;;;;18.84;100.00;101291.78;4932306;29;20051;-64
2023/07/19 06:01:17;;;;;;;7.65;4.50;;;;;;;18.89;100.00;101292.00;4920450;29;20095;-64
2023/07/19 06:03:46;;;;;;;10.93;5.30;;;;;;;19.00;100.00;101287.22;4925467;29;20047;-65
2023/07/19 06:06:14;;;;;;;9.07;5.30;;;;;;;19.03;100.00;101292.16;4915433;29;20118;-68
2023/07/19 06:08:41;;;;;;;11.10;5.55;;;;;;;19.01;100.00;101292.31;4924325;29;20887;-64
2023/07/19 06:11:07;;;;;;;8.48;4.97;;;;;;;19.10;100.00;101295.69;4929555;29;20135;-64
2023/07/19 06:13:34;;;;;;;10.07;5.57;;;;;;;19.09;100.00;101288.72;4922690;29;20111;-64
2023/07/19 06:16:00;;;;;;;7.80;4.45;;;;;;;19.11;100.00;101297.31;4925648;29;20054;-63
2023/07/19 06:18:27;;;;;;;9.35;5.20;;;;;;;19.23;100.00;101287.84;4913417;29;20521;-64
2023/07/19 06:20:54;;;;;;;8.07;5.03;;;;;;;19.34;100.00;101289.94;4926626;29;20062;-64
2023/07/19 06:23:20;;;;;;;10.02;5.35;;;;;;;19.41;100.00;101284.69;4928903;29;20054;-64
2023/07/19 06:25:48;;;;;;;12.35;5.45;;;;;;;19.49;100.00;101284.53;4919694;28;20075;-64
2023/07/19 06:28:15;;;;;;;8.30;4.53;;;;;;;19.57;100.00;101283.56;4929054;29;20429;-63
2023/07/19 06:30:43;;;;;;;10.27;5.55;;;;;;;19.44;100.00;101275.50;4920621;28;21212;-64
2023/07/19 06:33:09;;;;;;;8.25;5.32;;;;;;;19.45;100.00;101282.47;4928362;29;20086;-65
2023/07/19 06:35:36;;;;;;;7.38;4.72;;;;;;;19.55;100.00;101278.44;4926592;29;20069;-64
2023/07/19 06:38:02;;;;;;;8.98;4.72;;;;;;;19.64;99.51;101283.59;4932282;29;20052;-63
2023/07/19 06:40:29;;;;;;;9.75;4.65;;;;;;;19.73;99.31;101279.81;4933501;29;20138;-64
2023/07/19 06:42:56;;;;;;;10.18;4.63;;;;;;;19.78;98.42;101274.75;4908245;29;20076;-64
2023/07/19 06:45:22;;;;;;;12.40;4.70;;;;;;;19.75;97.47;101272.47;4928822;29;20063;-64
2023/07/19 06:47:49;;;;;;;8.70;4.63;;;;;;;19.78;97.18;101277.41;4921505;29;20458;-64
2023/07/19 06:50:17;;;;;;;9.90;4.55;;;;;;;19.85;98.32;101280.09;4932700;29;20728;-64
2023/07/19 06:52:43;;;;;;;10.18;4.70;;;;;;;19.92;97.41;101276.44;4927169;29;20138;-64
2023/07/19 06:55:10;;;;;;;9.13;4.82;;;;;;;19.98;97.89;101284.66;4932444;29;20062;-64
2023/07/19 06:57:36;;;;;;;7.50;4.30;;;;;;;20.01;95.78;101277.09;4927814;29;20098;-65
2023/07/19 07:00:05;;;;;;;10.15;4.80;;;;;;;19.94;92.44;101281.56;4921101;29;20474;-65
2023/07/19 07:02:32;;;;;;;11.02;4.57;;;;;;;19.98;91.50;101287.34;4930304;29;20138;-65
2023/07/19 07:04:59;;;;;;;11.32;4.45;;;;;;;19.99;92.86;101284.44;4910527;29;20726;-64
2023/07/19 07:07:25;;;;;;;9.43;4.57;;;;;;;19.98;91.59;101282.81;4931557;29;20501;-64
2023/07/19 07:09:53;;;;;;;13.02;4.57;;;;;;;20.03;93.77;101288.38;4925391;29;20106;-63
2023/07/19 07:12:19;;;;;;;10.75;4.60;;;;;;;20.03;92.74;101283.06;4926667;29;20371;-64
2023/07/19 07:14:46;;;;;;;10.50;4.90;;;;;;;19.93;94.32;101286.09;4920932;29;20079;-64
2023/07/19 07:17:16;;;;;;;8.57;5.13;;;;;;;19.88;95.74;101291.16;4926369;29;20098;-64
2023/07/19 07:19:42;;;;;;;8.98;4.68;;;;;;;19.84;96.43;101287.25;4930830;29;20059;-64
2023/07/19 07:22:09;;;;;;;8.68;4.78;;;;;;;19.94;95.93;101286.91;4926525;28;20083;-65
2023/07/19 07:24:35;;;;;;;10.23;4.57;;;;;;;20.08;96.96;101285.13;4931181;29;20469;-64
2023/07/19 07:27:03;;;;;;;10.43;4.65;;;;;;;20.16;97.36;101284.94;4917621;29;20059;-64
2023/07/19 07:29:29;;;;;;;8.38;4.57;;;;;;;20.21;93.48;101287.00;4928275;29;20248;-64
2023/07/19 07:31:56;;;;;;;15.15;4.80;;;;;;;20.14;94.95;101285.13;4932100;29;20079;-64
2023/07/19 07:34:22;;;;;;;10.20;5.35;;;;;;;20.17;95.16;101288.44;4925703;29;20138;-64
2023/07/19 07:36:52;;;;;;;8.35;4.82;;;;;;;20.26;95.18;101287.25;4915490;29;20094;-65
2023/07/19 07:39:19;;;;;;;11.25;4.82;;;;;;;20.31;95.90;101282.97;4921580;29;20142;-64
2023/07/19 07:41:45;;;;;;;8.40;4.82;;;;;;;20.24;91.04;101279.44;4925983;29;20054;-63
2023/07/19 07:44:12;;;;;;;9.93;4.50;;;;;;;20.25;92.33;101283.75;4919637;29;20063;-64
2023/07/19 07:46:38;;;;;;;7.57;4.20;;;;;;;20.14;92.33;101277.16;4932264;29;20058;-64
2023/07/19 07:49:05;;;;;;;9.88;4.63;;;;;;;20.18;91.22;101280.25;4926761;29;20488;-64
2023/07/19 07:51:33;;;;;;;11.07;4.30;;;;;;;20.23;93.18;101277.81;4933150;29;20056;-64
2023/07/19 07:53:59;;;;;;;8.25;4.88;;;;;;;20.28;93.85;101271.88;4930227;28;20058;-65
2023/07/19 07:56:26;;;;;;;9.57;4.22;;;;;;;20.47;96.11;101272.97;4918000;29;20236;-65
2023/07/19 07:58:52;;;;;;;11.30;4.80;;;;;;;20.55;91.02;101264.78;4930151;29;20852;-64
2023/07/19 08:01:19;;;;;;;7.95;5.38;;;;;;;20.58;87.52;101266.22;4922740;29;20055;-65
2023/07/19 08:03:46;;;;;;;7.60;3.93;;;;;;;20.62;88.37;101267.47;4928061;29;20103;-64
2023/07/19 08:06:12;;;;;;;10.10;4.22;;;;;;;20.59;88.36;101275.88;4930513;29;20544;-64
2023/07/19 08:08:39;;;;;;;9.35;4.80;;;;;;;20.63;87.66;101266.47;4904316;29;20055;-65
2023/07/19 08:11:06;;;;;;;7.25;3.88;;;;;;;20.69;88.84;101263.00;4925014;29;20126;-64
2023/07/19 08:13:33;;;;;;;8.82;4.07;;;;;;;20.76;86.37;101268.31;4923915;28;20078;-65
2023/07/19 08:15:59;;;;;;;8.48;4.22;;;;;;;20.66;87.00;101268.72;4930894;29;20382;-65
2023/07/19 08:18:26;;;;;;;13.20;3.75;;;;;;;20.52;85.77;101257.19;4925328;28;20051;-66
2023/07/19 08:20:54;;;;;;;7.90;3.53;;;;;;;20.52;88.34;101254.53;4930788;29;20155;-65
2023/07/19 08:23:20;;;;;;;10.75;4.57;;;;;;;20.49;88.65;101255.75;4922306;29;20104;-65
2023/07/19 08:25:47;;;;;;;7.25;3.80;;;;;;;20.58;89.18;101251.06;4923714;29;20060;-64
2023/07/19 08:28:13;;;;;;;7.40;3.70;;;;;;;20.64;87.83;101249.44;4927248;29;20383;-64
2023/07/19 08:30:40;;;;;;;7.75;4.35;;;;;;;20.69;86.11;101249.69;4924784;29;20055;-63
2023/07/19 08:33:08;;;;;;;10.55;3.58;;;;;;;20.90;92.49;101252.16;4914745;29;20091;-63
2023/07/19 08:35:35;;;;;;;8.57;3.58;;;;;;;21.03;85.52;101253.19;4923811;29;20516;-64
2023/07/19 08:38:02;;;;;;;11.93;4.03;;;;;;;21.16;85.48;101253.19;4924788;29;20452;-64
2023/07/19 08:40:31;;;;;;;8.13;3.78;;;;;;;21.36;86.27;101258.50;4904521;29;20063;-64
2023/07/19 08:42:58;;;;;;;8.75;4.20;;;;;;;21.58;81.69;101251.13;4927922;29;20071;-64
2023/07/19 08:45:26;;;;;;;8.13;3.58;;;;;;;21.56;78.19;101261.19;4931063;29;20122;-65
2023/07/19 08:47:53;;;;;;;8.35;3.95;;;;;;;21.58;79.18;101259.13;4917613;29;20199;-64
2023/07/19 08:50:21;;;;;;;9.07;3.60;;;;;;;21.76;80.10;101257.63;4926837;29;20058;-64
2023/07/19 08:52:48;;;;;;;8.90;3.83;;;;;;;22.00;76.75;101256.94;4903547;29;20066;-66
2023/07/19 08:55:15;;;;;;;10.32;4.50;;;;;;;21.95;77.22;101255.91;4922442;29;20083;-65
2023/07/19 08:57:43;;;;;;;9.85;3.30;;;;;;;22.03;79.70;101247.66;4921905;29;20791;-65
2023/07/19 09:00:10;;;;;;;8.43;3.50;;;;;;;22.16;78.66;101250.28;4927670;29;20056;-64
2023/07/19 09:02:36;;;;;;;7.93;3.00;;;;;;;22.25;75.42;101250.91;4909083;29;20058;-64
2023/07/19 09:05:08;;;;;;;9.10;3.13;;;;;;;22.34;73.93;101244.25;4911790;29;20063;-64
2023/07/19 09:07:36;;;;;;;9.02;3.00;;;;;;;22.20;71.29;101246.16;4923920;29;20086;-64
2023/07/19 09:10:03;;;;;;;;;;;;;;;22.12;78.05;101241.06;4910917;29;20567;-64
2023/07/19 09:12:41;;;;;;;8.30;3.38;;;;;;;22.19;79.67;101249.88;4929626;29;19981;-64
2023/07/19 09:15:09;;;;;;;7.78;3.42;;;;;;;22.59;78.70;101249.66;4905363;29;20076;-63
2023/07/19 09:17:37;;;;;;;;;;;;;;;22.64;76.25;101241.81;4929988;29;20110;-64
2023/07/19 09:20:04;;;;;;;5.22;2.90;;;;;;;23.31;78.56;101249.34;4911996;29;19941;-64
2023/07/19 09:22:31;;;;;;;14.73;3.13;;;;;;;23.68;67.04;101235.97;4924541;28;20668;-63
2023/07/19 09:25:01;;;;;;;9.93;3.22;;;;;;;24.14;67.73;101233.78;4928957;29;20286;-65
2023/07/19 09:27:30;;;;;;;7.45;3.95;;;;;;;24.13;62.55;101241.03;4920497;29;20052;-63
2023/07/19 09:29:56;;;;;;;8.80;3.15;;;;;;;24.39;63.66;101241.69;4929306;29;20091;-64
2023/07/19 09:32:24;;;;;;;8.95;3.55;;;;;;;24.69;63.79;101248.91;4917068;29;20059;-65
2023/07/19 09:34:55;;;;;;;7.25;3.28;;;;;;;24.89;62.58;101237.88;4926722;29;20047;-65
2023/07/19 09:37:25;;;;;;;7.75;3.13;;;;;;;24.79;62.16;101241.94;4922359;29;20086;-66
2023/07/19 09:39:55;;;;;;;7.43;2.80;;;;;;;24.98;60.39;101244.53;4910955;29;20135;-65
2023/07/19 09:42:24;;;;;;;6.05;2.72;;;;;;;24.66;59.42;101231.44;4927115;29;20385;-65
2023/07/19 09:44:52;;;;;;;8.80;2.80;;;;;;;24.60;58.15;101246.56;4904507;29;20048;-66
2023/07/19 09:47:19;;;;;;;6.57;2.63;;;;;;;24.31;58.97;101242.03;4926612;29;20060;-64
2023/07/19 09:49:55;;;;;;;7.75;2.55;;;;;;;23.98;60.17;101244.09;4920416;28;20094;-64
2023/07/19 09:52:24;;;;;;;8.55;3.03;;;;;;;23.81;62.49;101241.19;4928307;29;20545;-65
2023/07/19 09:54:52;;;;;;;5.90;2.38;;;;;;;24.43;63.91;101240.19;4915246;29;20048;-64
2023/07/19 09:57:23;;;;;;;5.35;2.20;;;;;;;24.65;62.80;101237.81;4922717;29;20917;-64
2023/07/19 09:59:51;;;;;;;6.03;2.55;;;;;;;24.55;61.36;101237.56;4919740;29;20048;-66
2023/07/19 10:02:21;;;;;;;8.13;2.83;;;;;;;24.32;59.80;101236.41;4916233;29;20060;-65
2023/07/19 10:04:47;;;;;;;8.52;2.70;;;;;;;24.38;59.56;101243.53;4926788;29;20055;-64
2023/07/19 10:07:25;;;;;;;5.65;2.83;;;;;;;24.57;58.61;101241.66;4920810;29;20052;-65
2023/07/19 10:10:07;;;;;;;6.30;2.50;;;;;;;24.06;57.69;101254.50;4927228;29;20062;-64
2023/07/19 10:12:36;;;;;;;5.82;2.60;;;;;;;23.69;59.46;101242.97;4905692;29;20106;-67
2023/07/19 10:15:07;;;;;;;8.35;2.80;;;;;;;23.85;57.45;101241.56;4911551;29;20142;-65
2023/07/19 10:17:54;;;;;;;6.13;2.88;;;;;;;23.79;58.63;101247.81;4926496;29;20069;-65
2023/07/19 10:20:24;;;;;;;6.70;2.38;;;;;;;23.92;56.55;101236.16;4920542;29;20051;-65
2023/07/19 10:22:57;;;;;;;6.05;2.40;;;;;;;23.83;56.58;101235.63;4929325;29;20190;-65
2023/07/19 10:25:24;;;;;;;7.47;2.97;;;;;;;24.00;57.11;101236.63;4921309;28;20531;-64
2023/07/19 10:28:01;;;;;;;6.95;2.78;;;;;;;23.81;58.54;101238.50;4921534;29;20055;-65
2023/07/19 10:30:43;;;;;;;6.22;2.67;;;;;;;23.58;58.67;101233.81;4925305;29;20043;-64
2023/07/19 10:33:15;;;;;;;7.40;2.97;;;;;;;23.46;58.24;101235.56;4926965;29;20059;-65
2023/07/19 10:35:43;;;;;;;4.88;2.40;;;;;;;23.85;60.14;101237.00;4908084;29;20056;-66
2023/07/19 10:38:23;;;;;;;8.20;2.63;;;;;;;24.33;59.55;101227.34;4929621;29;20060;-66
2023/07/19 10:41:02;;;;;;;9.48;3.30;;;;;;;24.50;57.91;101234.72;4907803;29;20055;-66
2023/07/19 10:43:31;;;;;;;7.20;3.20;;;;;;;24.60;59.47;101230.47;4930001;29;20051;-65
2023/07/19 10:46:14;;;;;;;6.63;2.75;;;;;;;24.89;60.90;101221.78;4924041;28;20052;-64
2023/07/19 10:48:41;;;;;;;6.88;2.80;;;;;;;25.14;58.20;101214.31;4912941;29;20098;-64
2023/07/19 10:51:09;;;;;;;9.15;2.38;;;;;;;25.35;60.14;101212.94;4930555;29;20063;-65
2023/07/19 10:53:47;;;;;;;6.47;2.92;;;;;;;25.52;60.87;101226.47;4899957;29;20051;-64
2023/07/19 10:56:16;;;;;;;5.25;2.70;;;;;;;25.39;60.44;101218.66;4924587;29;20059;-66
2023/07/19 10:58:43;;;;;;;4.70;2.05;;;;;;;25.29;61.55;101231.84;4922627;29;20051;-65
2023/07/19 11:01:10;;;;;;;5.30;2.72;;;;;;;24.99;62.25;101232.72;4930830;29;20893;-64
2023/07/19 11:03:38;;;;;;;5.90;2.30;;;;;;;25.02;64.68;101227.72;4923747;29;20058;-66
2023/07/19 11:06:06;;;;;;;;;;;;;;;24.93;62.33;101231.78;4927661;29;20255;-64
2023/07/19 11:08:33;;;;;;;;;;;;;;;25.37;64.01;101240.34;4923333;29;20156;-65
2023/07/19 11:11:00;;;;;;;5.97;2.70;;;;;;;25.36;63.62;101235.22;4921258;29;19937;-66
2023/07/19 11:13:26;;;;;;;5.72;3.10;;;;;;;25.33;61.34;101230.34;4930073;29;20047;-64
2023/07/19 11:15:58;;;;;;;5.35;2.70;;;;;;;25.42;62.86;101223.53;4924952;29;20139;-65
2023/07/19 11:18:27;;;;;;;6.97;2.75;;;;;;;25.43;64.14;101223.31;4928648;29;20059;-66
2023/07/19 11:20:57;;;;;;;7.93;3.35;;;;;;;25.28;62.81;101225.66;4919427;29;20512;-65